<?xml version="1.0" encoding="UTF-8" standalone="no" ?><gpx xmlns="http://www.topografix.com/GPX/1/1" xmlns:gpxx="http://www.garmin.com/xmlschemas/GpxExtensions/v3" xmlns:gpxtrkx="http://www.garmin.com/xmlschemas/TrackStatsExtension/v1" xmlns:wptx1="http://www.garmin.com/xmlschemas/WaypointExtension/v1" xmlns:gpxtpx="http://www.garmin.com/xmlschemas/TrackPointExtension/v1" creator="Oregon 700" version="1.1" xmlns:xsi="http://www.w3.org/2001/XMLSchema-instance" xsi:schemaLocation="http://www.topografix.com/GPX/1/1 http://www.topografix.com/GPX/1/1/gpx.xsd http://www.garmin.com/xmlschemas/GpxExtensions/v3 http://www8.garmin.com/xmlschemas/GpxExtensionsv3.xsd http://www.garmin.com/xmlschemas/TrackStatsExtension/v1 http://www8.garmin.com/xmlschemas/TrackStatsExtension.xsd http://www.garmin.com/xmlschemas/WaypointExtension/v1 http://www8.garmin.com/xmlschemas/WaypointExtensionv1.xsd http://www.garmin.com/xmlschemas/TrackPointExtension/v1 http://www.garmin.com/xmlschemas/TrackPointExtensionv1.xsd"><metadata><link href="http://www.garmin.com"><text>Garmin International</text></link><time>2021-11-03T22:50:30Z</time></metadata><trk><name>Current Track: 03 NOV 2021 09:55</name><extensions><gpxx:TrackExtension><gpxx:DisplayColor>Cyan</gpxx:DisplayColor></gpxx:TrackExtension><gpxtrkx:TrackStatsExtension><gpxtrkx:Distance>5513.000</gpxtrkx:Distance><gpxtrkx:TimerTime>9094</gpxtrkx:TimerTime><gpxtrkx:TotalElapsedTime>46505</gpxtrkx:TotalElapsedTime><gpxtrkx:MovingTime>7093</gpxtrkx:MovingTime><gpxtrkx:StoppedTime>2002</gpxtrkx:StoppedTime><gpxtrkx:MovingSpeed>0.777</gpxtrkx:MovingSpeed><gpxtrkx:MaxSpeed>1.823</gpxtrkx:MaxSpeed><gpxtrkx:MaxElevation>288.914</gpxtrkx:MaxElevation><gpxtrkx:MinElevation>227.044</gpxtrkx:MinElevation><gpxtrkx:Ascent>146.000</gpxtrkx:Ascent><gpxtrkx:Descent>152.105</gpxtrkx:Descent><gpxtrkx:AvgAscentRate>0.053</gpxtrkx:AvgAscentRate><gpxtrkx:MaxAscentRate>0.121</gpxtrkx:MaxAscentRate><gpxtrkx:AvgDescentRate>0.065</gpxtrkx:AvgDescentRate><gpxtrkx:MaxDescentRate>-0.103</gpxtrkx:MaxDescentRate><gpxtrkx:Calories>275</gpxtrkx:Calories></gpxtrkx:TrackStatsExtension></extensions><trkseg><trkpt lat="51.7779985908" lon="-2.0927552786"><ele>279.84</ele><time>2021-11-03T09:55:26Z</time></trkpt><trkpt lat="51.7779938970" lon="-2.0927680191"><ele>279.96</ele><time>2021-11-03T09:55:47Z</time></trkpt><trkpt lat="51.7779972497" lon="-2.0927556138"><ele>279.75</ele><time>2021-11-03T09:56:01Z</time></trkpt><trkpt lat="51.7780131754" lon="-2.0927626546"><ele>279.68</ele><time>2021-11-03T09:56:28Z</time></trkpt><trkpt lat="51.7780299392" lon="-2.0926774945"><ele>279.76</ele><time>2021-11-03T09:56:49Z</time></trkpt><trkpt lat="51.7780680768" lon="-2.0926114451"><ele>279.76</ele><time>2021-11-03T09:57:02Z</time></trkpt><trkpt lat="51.7781088129" lon="-2.0925092697"><ele>279.76</ele><time>2021-11-03T09:57:15Z</time></trkpt><trkpt lat="51.7781541590" lon="-2.0924499258"><ele>279.76</ele><time>2021-11-03T09:57:28Z</time></trkpt><trkpt lat="51.7781988345" lon="-2.0923302323"><ele>279.76</ele><time>2021-11-03T09:57:41Z</time></trkpt><trkpt lat="51.7782811448" lon="-2.0921718981"><ele>278.55</ele><time>2021-11-03T09:57:57Z</time></trkpt><trkpt lat="51.7783003394" lon="-2.0921552181"><ele>277.08</ele><time>2021-11-03T09:58:00Z</time></trkpt><trkpt lat="51.7783676460" lon="-2.0922003128"><ele>276.72</ele><time>2021-11-03T09:58:15Z</time></trkpt><trkpt lat="51.7784795444" lon="-2.0923867263"><ele>276.55</ele><time>2021-11-03T09:58:30Z</time></trkpt><trkpt lat="51.7785668839" lon="-2.0926217549"><ele>276.09</ele><time>2021-11-03T09:58:49Z</time></trkpt><trkpt lat="51.7785719130" lon="-2.0926355850"><ele>276.05</ele><time>2021-11-03T09:58:50Z</time></trkpt><trkpt lat="51.7786315084" lon="-2.0927594695"><ele>275.70</ele><time>2021-11-03T09:59:03Z</time></trkpt><trkpt lat="51.7786453385" lon="-2.0929209888"><ele>275.60</ele><time>2021-11-03T09:59:19Z</time></trkpt><trkpt lat="51.7786551453" lon="-2.0931388345"><ele>275.21</ele><time>2021-11-03T09:59:36Z</time></trkpt><trkpt lat="51.7786510382" lon="-2.0934092347"><ele>275.24</ele><time>2021-11-03T09:59:57Z</time></trkpt><trkpt lat="51.7786959652" lon="-2.0936919563"><ele>275.14</ele><time>2021-11-03T10:00:18Z</time></trkpt><trkpt lat="51.7787143216" lon="-2.0937994123"><ele>275.71</ele><time>2021-11-03T10:00:40Z</time></trkpt><trkpt lat="51.7787140701" lon="-2.0938364603"><ele>275.33</ele><time>2021-11-03T10:01:03Z</time></trkpt><trkpt lat="51.7787073646" lon="-2.0938756876"><ele>275.43</ele><time>2021-11-03T10:01:14Z</time></trkpt><trkpt lat="51.7787009943" lon="-2.0939647034"><ele>275.18</ele><time>2021-11-03T10:01:19Z</time></trkpt><trkpt lat="51.7786842305" lon="-2.0940735843"><ele>275.47</ele><time>2021-11-03T10:01:28Z</time></trkpt><trkpt lat="51.7786882538" lon="-2.0941324253"><ele>275.55</ele><time>2021-11-03T10:01:33Z</time></trkpt><trkpt lat="51.7787140701" lon="-2.0942894183"><ele>275.95</ele><time>2021-11-03T10:01:48Z</time></trkpt><trkpt lat="51.7787245475" lon="-2.0943379495"><ele>276.21</ele><time>2021-11-03T10:01:52Z</time></trkpt><trkpt lat="51.7787140701" lon="-2.0943975449"><ele>276.25</ele><time>2021-11-03T10:01:56Z</time></trkpt><trkpt lat="51.7787418980" lon="-2.0945676137"><ele>277.07</ele><time>2021-11-03T10:02:10Z</time></trkpt><trkpt lat="51.7787586618" lon="-2.0946813561"><ele>277.83</ele><time>2021-11-03T10:02:17Z</time></trkpt><trkpt lat="51.7787667084" lon="-2.0947552007"><ele>278.08</ele><time>2021-11-03T10:02:22Z</time></trkpt><trkpt lat="51.7787740007" lon="-2.0948131196"><ele>278.19</ele><time>2021-11-03T10:02:26Z</time></trkpt><trkpt lat="51.7787926923" lon="-2.0949122775"><ele>278.36</ele><time>2021-11-03T10:02:33Z</time></trkpt><trkpt lat="51.7788237892" lon="-2.0950805023"><ele>278.64</ele><time>2021-11-03T10:02:46Z</time></trkpt><trkpt lat="51.7788415588" lon="-2.0952132717"><ele>279.05</ele><time>2021-11-03T10:02:56Z</time></trkpt><trkpt lat="51.7788579036" lon="-2.0952966716"><ele>279.23</ele><time>2021-11-03T10:03:02Z</time></trkpt><trkpt lat="51.7788737454" lon="-2.0954716019"><ele>279.33</ele><time>2021-11-03T10:03:15Z</time></trkpt><trkpt lat="51.7788772658" lon="-2.0956295170"><ele>279.65</ele><time>2021-11-03T10:03:27Z</time></trkpt><trkpt lat="51.7788783554" lon="-2.0956733543"><ele>279.68</ele><time>2021-11-03T10:03:31Z</time></trkpt><trkpt lat="51.7788988072" lon="-2.0958560798"><ele>279.80</ele><time>2021-11-03T10:03:46Z</time></trkpt><trkpt lat="51.7789031658" lon="-2.0960699860"><ele>279.46</ele><time>2021-11-03T10:04:02Z</time></trkpt><trkpt lat="51.7789138947" lon="-2.0962543879"><ele>279.58</ele><time>2021-11-03T10:04:17Z</time></trkpt><trkpt lat="51.7789103743" lon="-2.0963833015"><ele>279.49</ele><time>2021-11-03T10:04:28Z</time></trkpt><trkpt lat="51.7789067701" lon="-2.0965628419"><ele>279.61</ele><time>2021-11-03T10:04:42Z</time></trkpt><trkpt lat="51.7789056804" lon="-2.0965743251"><ele>279.63</ele><time>2021-11-03T10:04:43Z</time></trkpt><trkpt lat="51.7789009027" lon="-2.0966310706"><ele>279.81</ele><time>2021-11-03T10:04:47Z</time></trkpt><trkpt lat="51.7788892519" lon="-2.0966974553"><ele>280.05</ele><time>2021-11-03T10:04:52Z</time></trkpt><trkpt lat="51.7788994778" lon="-2.0968119521"><ele>280.11</ele><time>2021-11-03T10:05:01Z</time></trkpt><trkpt lat="51.7789072730" lon="-2.0969380159"><ele>280.27</ele><time>2021-11-03T10:05:13Z</time></trkpt><trkpt lat="51.7789115477" lon="-2.0970825199"><ele>280.33</ele><time>2021-11-03T10:05:24Z</time></trkpt><trkpt lat="51.7789408006" lon="-2.0973034669"><ele>280.61</ele><time>2021-11-03T10:05:39Z</time></trkpt><trkpt lat="51.7789740767" lon="-2.0973737910"><ele>280.75</ele><time>2021-11-03T10:05:58Z</time></trkpt><trkpt lat="51.7790564708" lon="-2.0974313747"><ele>280.00</ele><time>2021-11-03T10:06:21Z</time></trkpt><trkpt lat="51.7791594006" lon="-2.0974511560"><ele>279.23</ele><time>2021-11-03T10:06:36Z</time></trkpt><trkpt lat="51.7792473268" lon="-2.0975193847"><ele>277.98</ele><time>2021-11-03T10:06:55Z</time></trkpt><trkpt lat="51.7793407850" lon="-2.0977247413"><ele>277.64</ele><time>2021-11-03T10:07:15Z</time></trkpt><trkpt lat="51.7793683615" lon="-2.0978806447"><ele>277.31</ele><time>2021-11-03T10:07:29Z</time></trkpt><trkpt lat="51.7794299684" lon="-2.0981372986"><ele>277.12</ele><time>2021-11-03T10:07:48Z</time></trkpt><trkpt lat="51.7794821039" lon="-2.0983092953"><ele>276.79</ele><time>2021-11-03T10:08:05Z</time></trkpt><trkpt lat="51.7795452196" lon="-2.0984596666"><ele>274.98</ele><time>2021-11-03T10:08:25Z</time></trkpt><trkpt lat="51.7796294577" lon="-2.0985481795"><ele>273.21</ele><time>2021-11-03T10:08:43Z</time></trkpt><trkpt lat="51.7796446290" lon="-2.0985467546"><ele>272.25</ele><time>2021-11-03T10:09:02Z</time></trkpt><trkpt lat="51.7796605546" lon="-2.0985554717"><ele>272.20</ele><time>2021-11-03T10:09:21Z</time></trkpt><trkpt lat="51.7796746362" lon="-2.0985227823"><ele>271.57</ele><time>2021-11-03T10:09:39Z</time></trkpt><trkpt lat="51.7797195632" lon="-2.0985607523"><ele>270.69</ele><time>2021-11-03T10:09:59Z</time></trkpt><trkpt lat="51.7798074894" lon="-2.0986194257"><ele>271.70</ele><time>2021-11-03T10:10:13Z</time></trkpt><trkpt lat="51.7798826750" lon="-2.0986643527"><ele>271.91</ele><time>2021-11-03T10:10:26Z</time></trkpt><trkpt lat="51.7799694277" lon="-2.0987396222"><ele>273.44</ele><time>2021-11-03T10:10:42Z</time></trkpt><trkpt lat="51.7800502293" lon="-2.0988304820"><ele>275.01</ele><time>2021-11-03T10:10:56Z</time></trkpt><trkpt lat="51.7801247444" lon="-2.0988977049"><ele>275.99</ele><time>2021-11-03T10:11:08Z</time></trkpt><trkpt lat="51.7801445257" lon="-2.0989171509"><ele>276.16</ele><time>2021-11-03T10:11:11Z</time></trkpt><trkpt lat="51.7801658157" lon="-2.0989395306"><ele>276.22</ele><time>2021-11-03T10:11:14Z</time></trkpt><trkpt lat="51.7802135088" lon="-2.0989686996"><ele>276.31</ele><time>2021-11-03T10:11:20Z</time></trkpt><trkpt lat="51.7802730203" lon="-2.0990122855"><ele>276.36</ele><time>2021-11-03T10:11:29Z</time></trkpt><trkpt lat="51.7803348787" lon="-2.0990603138"><ele>276.71</ele><time>2021-11-03T10:11:39Z</time></trkpt><trkpt lat="51.7804000061" lon="-2.0991104376"><ele>276.68</ele><time>2021-11-03T10:11:54Z</time></trkpt><trkpt lat="51.7804826517" lon="-2.0991758164"><ele>276.72</ele><time>2021-11-03T10:12:08Z</time></trkpt><trkpt lat="51.7805847432" lon="-2.0992602222"><ele>276.64</ele><time>2021-11-03T10:12:23Z</time></trkpt><trkpt lat="51.7806945462" lon="-2.0993251819"><ele>276.30</ele><time>2021-11-03T10:12:39Z</time></trkpt><trkpt lat="51.7807360366" lon="-2.0993520040"><ele>276.09</ele><time>2021-11-03T10:12:47Z</time></trkpt><trkpt lat="51.7808197718" lon="-2.0994228311"><ele>275.77</ele><time>2021-11-03T10:13:01Z</time></trkpt><trkpt lat="51.7809191812" lon="-2.0995354839"><ele>275.41</ele><time>2021-11-03T10:13:19Z</time></trkpt><trkpt lat="51.7810145672" lon="-2.0996007789"><ele>275.19</ele><time>2021-11-03T10:13:33Z</time></trkpt><trkpt lat="51.7811079416" lon="-2.0996810775"><ele>274.70</ele><time>2021-11-03T10:13:46Z</time></trkpt><trkpt lat="51.7812139727" lon="-2.0997599512"><ele>273.50</ele><time>2021-11-03T10:14:02Z</time></trkpt><trkpt lat="51.7812835425" lon="-2.0997907966"><ele>272.74</ele><time>2021-11-03T10:14:12Z</time></trkpt><trkpt lat="51.7813878972" lon="-2.0998700894"><ele>272.07</ele><time>2021-11-03T10:14:28Z</time></trkpt><trkpt lat="51.7814745661" lon="-2.0998940617"><ele>271.67</ele><time>2021-11-03T10:14:47Z</time></trkpt><trkpt lat="51.7814859655" lon="-2.0998770464"><ele>271.77</ele><time>2021-11-03T10:15:00Z</time></trkpt><trkpt lat="51.7815655097" lon="-2.0998389926"><ele>271.50</ele><time>2021-11-03T10:15:18Z</time></trkpt><trkpt lat="51.7816264462" lon="-2.0997340512"><ele>271.54</ele><time>2021-11-03T10:15:31Z</time></trkpt><trkpt lat="51.7816363368" lon="-2.0997181255"><ele>271.54</ele><time>2021-11-03T10:15:33Z</time></trkpt><trkpt lat="51.7816556990" lon="-2.0996911358"><ele>271.48</ele><time>2021-11-03T10:15:36Z</time></trkpt><trkpt lat="51.7817350756" lon="-2.0996137708"><ele>272.37</ele><time>2021-11-03T10:15:49Z</time></trkpt><trkpt lat="51.7818126921" lon="-2.0996025391"><ele>273.12</ele><time>2021-11-03T10:16:01Z</time></trkpt><trkpt lat="51.7818788253" lon="-2.0995894633"><ele>272.71</ele><time>2021-11-03T10:16:12Z</time></trkpt><trkpt lat="51.7819840182" lon="-2.0996001083"><ele>272.36</ele><time>2021-11-03T10:16:25Z</time></trkpt><trkpt lat="51.7820134386" lon="-2.0996068977"><ele>272.41</ele><time>2021-11-03T10:16:29Z</time></trkpt><trkpt lat="51.7821084894" lon="-2.0996470470"><ele>271.87</ele><time>2021-11-03T10:16:42Z</time></trkpt><trkpt lat="51.7822007742" lon="-2.0996555965"><ele>271.47</ele><time>2021-11-03T10:16:55Z</time></trkpt><trkpt lat="51.7823166959" lon="-2.0997114200"><ele>270.24</ele><time>2021-11-03T10:17:11Z</time></trkpt><trkpt lat="51.7824169435" lon="-2.0997627173"><ele>269.54</ele><time>2021-11-03T10:17:24Z</time></trkpt><trkpt lat="51.7824895307" lon="-2.0998010226"><ele>268.96</ele><time>2021-11-03T10:17:34Z</time></trkpt><trkpt lat="51.7825836595" lon="-2.0998605341"><ele>268.23</ele><time>2021-11-03T10:17:48Z</time></trkpt><trkpt lat="51.7826874275" lon="-2.0999459457"><ele>266.55</ele><time>2021-11-03T10:18:06Z</time></trkpt><trkpt lat="51.7827587575" lon="-2.1000443492"><ele>265.73</ele><time>2021-11-03T10:18:21Z</time></trkpt><trkpt lat="51.7828353681" lon="-2.1001916192"><ele>264.55</ele><time>2021-11-03T10:18:39Z</time></trkpt><trkpt lat="51.7829082906" lon="-2.1003405657"><ele>263.40</ele><time>2021-11-03T10:18:57Z</time></trkpt><trkpt lat="51.7829282396" lon="-2.1004154999"><ele>262.35</ele><time>2021-11-03T10:19:17Z</time></trkpt><trkpt lat="51.7829961330" lon="-2.1005352773"><ele>261.38</ele><time>2021-11-03T10:19:32Z</time></trkpt><trkpt lat="51.7830668762" lon="-2.1006979700"><ele>260.67</ele><time>2021-11-03T10:19:48Z</time></trkpt><trkpt lat="51.7831219453" lon="-2.1008246206"><ele>259.99</ele><time>2021-11-03T10:20:06Z</time></trkpt><trkpt lat="51.7832037527" lon="-2.1009247843"><ele>259.04</ele><time>2021-11-03T10:20:24Z</time></trkpt><trkpt lat="51.7833284754" lon="-2.1010314859"><ele>258.42</ele><time>2021-11-03T10:20:47Z</time></trkpt><trkpt lat="51.7834081035" lon="-2.1012461465"><ele>258.71</ele><time>2021-11-03T10:21:07Z</time></trkpt><trkpt lat="51.7834764160" lon="-2.1013794187"><ele>260.01</ele><time>2021-11-03T10:21:27Z</time></trkpt><trkpt lat="51.7835488357" lon="-2.1014727931"><ele>261.96</ele><time>2021-11-03T10:21:47Z</time></trkpt><trkpt lat="51.7836091854" lon="-2.1014919877"><ele>264.84</ele><time>2021-11-03T10:22:06Z</time></trkpt><trkpt lat="51.7836790904" lon="-2.1014711168"><ele>266.60</ele><time>2021-11-03T10:22:19Z</time></trkpt><trkpt lat="51.7837446369" lon="-2.1014769003"><ele>267.81</ele><time>2021-11-03T10:22:34Z</time></trkpt><trkpt lat="51.7837622389" lon="-2.1015098412"><ele>269.52</ele><time>2021-11-03T10:22:50Z</time></trkpt><trkpt lat="51.7837606464" lon="-2.1015276108"><ele>269.22</ele><time>2021-11-03T10:23:18Z</time></trkpt><trkpt lat="51.7837595567" lon="-2.1015491523"><ele>269.13</ele><time>2021-11-03T10:23:47Z</time></trkpt><trkpt lat="51.7837719619" lon="-2.1016296186"><ele>268.89</ele><time>2021-11-03T10:24:06Z</time></trkpt><trkpt lat="51.7837666813" lon="-2.1016506571"><ele>268.89</ele><time>2021-11-03T10:24:31Z</time></trkpt><trkpt lat="51.7837734707" lon="-2.1017875336"><ele>268.89</ele><time>2021-11-03T10:24:47Z</time></trkpt><trkpt lat="51.7837509234" lon="-2.1019455325"><ele>268.89</ele><time>2021-11-03T10:25:03Z</time></trkpt><trkpt lat="51.7837362550" lon="-2.1021178644"><ele>268.89</ele><time>2021-11-03T10:25:18Z</time></trkpt><trkpt lat="51.7837194074" lon="-2.1022321098"><ele>268.89</ele><time>2021-11-03T10:25:29Z</time></trkpt><trkpt lat="51.7837180663" lon="-2.1023183595"><ele>268.89</ele><time>2021-11-03T10:25:36Z</time></trkpt><trkpt lat="51.7837215867" lon="-2.1024742629"><ele>268.89</ele><time>2021-11-03T10:25:49Z</time></trkpt><trkpt lat="51.7837195750" lon="-2.1026217006"><ele>268.89</ele><time>2021-11-03T10:26:01Z</time></trkpt><trkpt lat="51.7836949322" lon="-2.1027887519"><ele>268.89</ele><time>2021-11-03T10:26:15Z</time></trkpt><trkpt lat="51.7836878914" lon="-2.1029108763"><ele>268.89</ele><time>2021-11-03T10:26:25Z</time></trkpt><trkpt lat="51.7836629134" lon="-2.1030785982"><ele>271.51</ele><time>2021-11-03T10:26:37Z</time></trkpt><trkpt lat="51.7836687807" lon="-2.1032565460"><ele>271.80</ele><time>2021-11-03T10:26:52Z</time></trkpt><trkpt lat="51.7836578004" lon="-2.1034756489"><ele>272.01</ele><time>2021-11-03T10:27:10Z</time></trkpt><trkpt lat="51.7836478259" lon="-2.1036094241"><ele>272.20</ele><time>2021-11-03T10:27:22Z</time></trkpt><trkpt lat="51.7836389411" lon="-2.1037798282"><ele>272.35</ele><time>2021-11-03T10:27:36Z</time></trkpt><trkpt lat="51.7836387735" lon="-2.1038219053"><ele>272.38</ele><time>2021-11-03T10:27:39Z</time></trkpt><trkpt lat="51.7836349178" lon="-2.1038673352"><ele>272.42</ele><time>2021-11-03T10:27:42Z</time></trkpt><trkpt lat="51.7836315650" lon="-2.1039241645"><ele>272.55</ele><time>2021-11-03T10:27:46Z</time></trkpt><trkpt lat="51.7836130410" lon="-2.1040629689"><ele>272.77</ele><time>2021-11-03T10:27:57Z</time></trkpt><trkpt lat="51.7836083472" lon="-2.1041639708"><ele>272.81</ele><time>2021-11-03T10:28:05Z</time></trkpt><trkpt lat="51.7836054973" lon="-2.1043025237"><ele>273.11</ele><time>2021-11-03T10:28:16Z</time></trkpt><trkpt lat="51.7835931759" lon="-2.1044779569"><ele>273.35</ele><time>2021-11-03T10:28:29Z</time></trkpt><trkpt lat="51.7835850455" lon="-2.1046002489"><ele>274.14</ele><time>2021-11-03T10:28:39Z</time></trkpt><trkpt lat="51.7835860513" lon="-2.1047734190"><ele>274.79</ele><time>2021-11-03T10:28:53Z</time></trkpt><trkpt lat="51.7835774180" lon="-2.1049645264"><ele>275.03</ele><time>2021-11-03T10:29:07Z</time></trkpt><trkpt lat="51.7835709639" lon="-2.1051100362"><ele>275.29</ele><time>2021-11-03T10:29:18Z</time></trkpt><trkpt lat="51.7835674435" lon="-2.1051897481"><ele>275.37</ele><time>2021-11-03T10:29:24Z</time></trkpt><trkpt lat="51.7835666891" lon="-2.1052492596"><ele>275.44</ele><time>2021-11-03T10:29:28Z</time></trkpt><trkpt lat="51.7835599836" lon="-2.1054011397"><ele>275.74</ele><time>2021-11-03T10:29:40Z</time></trkpt><trkpt lat="51.7835566308" lon="-2.1054493356"><ele>275.79</ele><time>2021-11-03T10:29:44Z</time></trkpt><trkpt lat="51.7835542839" lon="-2.1055075899"><ele>275.93</ele><time>2021-11-03T10:29:48Z</time></trkpt><trkpt lat="51.7835517693" lon="-2.1056113578"><ele>275.96</ele><time>2021-11-03T10:29:56Z</time></trkpt><trkpt lat="51.7835492548" lon="-2.1056707855"><ele>275.90</ele><time>2021-11-03T10:30:00Z</time></trkpt><trkpt lat="51.7835417110" lon="-2.1057252679"><ele>275.97</ele><time>2021-11-03T10:30:04Z</time></trkpt><trkpt lat="51.7835316528" lon="-2.1059028804"><ele>276.12</ele><time>2021-11-03T10:30:18Z</time></trkpt><trkpt lat="51.7835246120" lon="-2.1059250087"><ele>276.13</ele><time>2021-11-03T10:30:20Z</time></trkpt><trkpt lat="51.7835091893" lon="-2.1060212329"><ele>276.13</ele><time>2021-11-03T10:30:28Z</time></trkpt><trkpt lat="51.7835049983" lon="-2.1061633900"><ele>276.38</ele><time>2021-11-03T10:30:39Z</time></trkpt><trkpt lat="51.7835018132" lon="-2.1062994283"><ele>276.74</ele><time>2021-11-03T10:30:50Z</time></trkpt><trkpt lat="51.7834881507" lon="-2.1064913739"><ele>277.48</ele><time>2021-11-03T10:31:05Z</time></trkpt><trkpt lat="51.7834802717" lon="-2.1065241471"><ele>277.66</ele><time>2021-11-03T10:31:08Z</time></trkpt><trkpt lat="51.7834735662" lon="-2.1065616142"><ele>277.88</ele><time>2021-11-03T10:31:12Z</time></trkpt><trkpt lat="51.7834546231" lon="-2.1066849958"><ele>278.34</ele><time>2021-11-03T10:31:23Z</time></trkpt><trkpt lat="51.7834478337" lon="-2.1067488659"><ele>278.67</ele><time>2021-11-03T10:31:27Z</time></trkpt><trkpt lat="51.7834428884" lon="-2.1067993250"><ele>278.80</ele><time>2021-11-03T10:31:30Z</time></trkpt><trkpt lat="51.7834389489" lon="-2.1069242153"><ele>279.22</ele><time>2021-11-03T10:31:44Z</time></trkpt><trkpt lat="51.7834648490" lon="-2.1070730779"><ele>279.23</ele><time>2021-11-03T10:32:02Z</time></trkpt><trkpt lat="51.7835034896" lon="-2.1073200088"><ele>279.70</ele><time>2021-11-03T10:32:24Z</time></trkpt><trkpt lat="51.7835562956" lon="-2.1075517684"><ele>279.64</ele><time>2021-11-03T10:32:45Z</time></trkpt><trkpt lat="51.7836082634" lon="-2.1077818517"><ele>279.64</ele><time>2021-11-03T10:33:07Z</time></trkpt><trkpt lat="51.7836609855" lon="-2.1080796607"><ele>279.64</ele><time>2021-11-03T10:33:30Z</time></trkpt><trkpt lat="51.7836778332" lon="-2.1081809979"><ele>279.64</ele><time>2021-11-03T10:33:36Z</time></trkpt><trkpt lat="51.7837027274" lon="-2.1083565149"><ele>278.83</ele><time>2021-11-03T10:33:48Z</time></trkpt><trkpt lat="51.7837039009" lon="-2.1083726920"><ele>278.82</ele><time>2021-11-03T10:33:49Z</time></trkpt><trkpt lat="51.7836883105" lon="-2.1085484605"><ele>278.55</ele><time>2021-11-03T10:34:01Z</time></trkpt><trkpt lat="51.7836796772" lon="-2.1085990034"><ele>278.67</ele><time>2021-11-03T10:34:20Z</time></trkpt><trkpt lat="51.7836604826" lon="-2.1087076329"><ele>278.32</ele><time>2021-11-03T10:34:48Z</time></trkpt><trkpt lat="51.7836619075" lon="-2.1088253986"><ele>278.11</ele><time>2021-11-03T10:35:02Z</time></trkpt><trkpt lat="51.7836671881" lon="-2.1090224572"><ele>277.02</ele><time>2021-11-03T10:35:25Z</time></trkpt><trkpt lat="51.7836697865" lon="-2.1092725731"><ele>275.52</ele><time>2021-11-03T10:35:49Z</time></trkpt><trkpt lat="51.7837055773" lon="-2.1095771715"><ele>273.62</ele><time>2021-11-03T10:36:12Z</time></trkpt><trkpt lat="51.7837347463" lon="-2.1098600607"><ele>271.66</ele><time>2021-11-03T10:36:31Z</time></trkpt><trkpt lat="51.7837477382" lon="-2.1101493202"><ele>269.30</ele><time>2021-11-03T10:36:51Z</time></trkpt><trkpt lat="51.7837666813" lon="-2.1103714406"><ele>267.18</ele><time>2021-11-03T10:37:10Z</time></trkpt><trkpt lat="51.7837739736" lon="-2.1105646435"><ele>265.35</ele><time>2021-11-03T10:37:30Z</time></trkpt><trkpt lat="51.7837818526" lon="-2.1107983310"><ele>263.49</ele><time>2021-11-03T10:37:50Z</time></trkpt><trkpt lat="51.7837566230" lon="-2.1110407356"><ele>261.41</ele><time>2021-11-03T10:38:11Z</time></trkpt><trkpt lat="51.7837692797" lon="-2.1112892590"><ele>259.49</ele><time>2021-11-03T10:38:33Z</time></trkpt><trkpt lat="51.7837711237" lon="-2.1114080306"><ele>258.46</ele><time>2021-11-03T10:38:43Z</time></trkpt><trkpt lat="51.7837827746" lon="-2.1116989665"><ele>256.57</ele><time>2021-11-03T10:39:07Z</time></trkpt><trkpt lat="51.7838110216" lon="-2.1119107772"><ele>254.69</ele><time>2021-11-03T10:39:27Z</time></trkpt><trkpt lat="51.7838136200" lon="-2.1120840311"><ele>252.74</ele><time>2021-11-03T10:39:48Z</time></trkpt><trkpt lat="51.7837924976" lon="-2.1123336442"><ele>251.52</ele><time>2021-11-03T10:40:07Z</time></trkpt><trkpt lat="51.7838057410" lon="-2.1125774737"><ele>250.17</ele><time>2021-11-03T10:40:27Z</time></trkpt><trkpt lat="51.7837890610" lon="-2.1127888653"><ele>248.81</ele><time>2021-11-03T10:40:48Z</time></trkpt><trkpt lat="51.7837815173" lon="-2.1130015980"><ele>247.97</ele><time>2021-11-03T10:41:03Z</time></trkpt><trkpt lat="51.7837790027" lon="-2.1131907776"><ele>246.96</ele><time>2021-11-03T10:41:19Z</time></trkpt><trkpt lat="51.7837684415" lon="-2.1133377962"><ele>245.41</ele><time>2021-11-03T10:41:37Z</time></trkpt><trkpt lat="51.7837683577" lon="-2.1135288198"><ele>244.16</ele><time>2021-11-03T10:41:52Z</time></trkpt><trkpt lat="51.7837638315" lon="-2.1136646904"><ele>243.30</ele><time>2021-11-03T10:42:03Z</time></trkpt><trkpt lat="51.7837228440" lon="-2.1139352582"><ele>242.06</ele><time>2021-11-03T10:42:21Z</time></trkpt><trkpt lat="51.7837484926" lon="-2.1141855419"><ele>241.18</ele><time>2021-11-03T10:42:42Z</time></trkpt><trkpt lat="51.7837418709" lon="-2.1144584566"><ele>240.62</ele><time>2021-11-03T10:43:02Z</time></trkpt><trkpt lat="51.7837412842" lon="-2.1146498155"><ele>240.22</ele><time>2021-11-03T10:43:21Z</time></trkpt><trkpt lat="51.7837443855" lon="-2.1148808207"><ele>240.20</ele><time>2021-11-03T10:43:40Z</time></trkpt><trkpt lat="51.7836866342" lon="-2.1151660569"><ele>240.56</ele><time>2021-11-03T10:44:01Z</time></trkpt><trkpt lat="51.7836747319" lon="-2.1153531410"><ele>241.11</ele><time>2021-11-03T10:44:15Z</time></trkpt><trkpt lat="51.7836729717" lon="-2.1155001596"><ele>241.83</ele><time>2021-11-03T10:44:30Z</time></trkpt><trkpt lat="51.7836788390" lon="-2.1156544704"><ele>242.60</ele><time>2021-11-03T10:44:45Z</time></trkpt><trkpt lat="51.7837084271" lon="-2.1157407202"><ele>242.82</ele><time>2021-11-03T10:44:53Z</time></trkpt><trkpt lat="51.7837121151" lon="-2.1158990543"><ele>243.94</ele><time>2021-11-03T10:45:04Z</time></trkpt><trkpt lat="51.7836875562" lon="-2.1159646846"><ele>244.39</ele><time>2021-11-03T10:45:24Z</time></trkpt><trkpt lat="51.7836720496" lon="-2.1159579791"><ele>244.22</ele><time>2021-11-03T10:45:52Z</time></trkpt><trkpt lat="51.7836636677" lon="-2.1161087696"><ele>244.07</ele><time>2021-11-03T10:46:08Z</time></trkpt><trkpt lat="51.7836398631" lon="-2.1163147129"><ele>244.20</ele><time>2021-11-03T10:46:24Z</time></trkpt><trkpt lat="51.7836228479" lon="-2.1165454667"><ele>243.80</ele><time>2021-11-03T10:46:42Z</time></trkpt><trkpt lat="51.7836291343" lon="-2.1167998575"><ele>243.05</ele><time>2021-11-03T10:47:01Z</time></trkpt><trkpt lat="51.7836210039" lon="-2.1168144420"><ele>243.08</ele><time>2021-11-03T10:47:26Z</time></trkpt><trkpt lat="51.7836479098" lon="-2.1168041322"><ele>242.77</ele><time>2021-11-03T10:47:47Z</time></trkpt><trkpt lat="51.7836401146" lon="-2.1167843509"><ele>242.60</ele><time>2021-11-03T10:48:08Z</time></trkpt><trkpt lat="51.7836492509" lon="-2.1167564392"><ele>242.34</ele><time>2021-11-03T10:48:27Z</time></trkpt><trkpt lat="51.7836557887" lon="-2.1167498175"><ele>242.62</ele><time>2021-11-03T10:48:48Z</time></trkpt><trkpt lat="51.7837013863" lon="-2.1167504881"><ele>242.31</ele><time>2021-11-03T10:49:09Z</time></trkpt><trkpt lat="51.7836895678" lon="-2.1167428605"><ele>243.40</ele><time>2021-11-03T10:49:37Z</time></trkpt><trkpt lat="51.7836878076" lon="-2.1167399269"><ele>243.63</ele><time>2021-11-03T10:49:38Z</time></trkpt><trkpt lat="51.7836845387" lon="-2.1167531703"><ele>242.14</ele><time>2021-11-03T10:50:04Z</time></trkpt><trkpt lat="51.7836520169" lon="-2.1167403460"><ele>242.34</ele><time>2021-11-03T10:50:31Z</time></trkpt><trkpt lat="51.7836299725" lon="-2.1166998614"><ele>242.34</ele><time>2021-11-03T10:51:06Z</time></trkpt><trkpt lat="51.7836646736" lon="-2.1167457104"><ele>242.34</ele><time>2021-11-03T10:51:41Z</time></trkpt><trkpt lat="51.7836441379" lon="-2.1167185530"><ele>242.34</ele><time>2021-11-03T10:52:09Z</time></trkpt><trkpt lat="51.7836511787" lon="-2.1167291142"><ele>240.16</ele><time>2021-11-03T10:52:12Z</time></trkpt><trkpt lat="51.7836572975" lon="-2.1167356521"><ele>241.54</ele><time>2021-11-03T10:52:15Z</time></trkpt><trkpt lat="51.7836574651" lon="-2.1167419385"><ele>241.23</ele><time>2021-11-03T10:52:37Z</time></trkpt><trkpt lat="51.7836354207" lon="-2.1167146973"><ele>241.84</ele><time>2021-11-03T10:52:59Z</time></trkpt><trkpt lat="51.7836097721" lon="-2.1167274378"><ele>241.63</ele><time>2021-11-03T10:53:26Z</time></trkpt><trkpt lat="51.7836229317" lon="-2.1167428605"><ele>241.65</ele><time>2021-11-03T10:53:49Z</time></trkpt><trkpt lat="51.7836097721" lon="-2.1167047229"><ele>241.75</ele><time>2021-11-03T10:54:28Z</time></trkpt><trkpt lat="51.7836029828" lon="-2.1166772302"><ele>241.75</ele><time>2021-11-03T10:55:13Z</time></trkpt><trkpt lat="51.7836064193" lon="-2.1166569460"><ele>241.75</ele><time>2021-11-03T10:55:36Z</time></trkpt><trkpt lat="51.7835791782" lon="-2.1165892202"><ele>241.75</ele><time>2021-11-03T10:56:32Z</time></trkpt><trkpt lat="51.7835664377" lon="-2.1165605541"><ele>241.75</ele><time>2021-11-03T10:57:05Z</time></trkpt><trkpt lat="51.7835608218" lon="-2.1165748872"><ele>241.75</ele><time>2021-11-03T10:57:30Z</time></trkpt><trkpt lat="51.7836249433" lon="-2.1166902222"><ele>241.75</ele><time>2021-11-03T10:57:51Z</time></trkpt><trkpt lat="51.7836369295" lon="-2.1167075727"><ele>241.75</ele><time>2021-11-03T10:58:16Z</time></trkpt><trkpt lat="51.7836521845" lon="-2.1167426091"><ele>241.75</ele><time>2021-11-03T10:59:01Z</time></trkpt><trkpt lat="51.7836639192" lon="-2.1167644858"><ele>241.75</ele><time>2021-11-03T10:59:55Z</time></trkpt><trkpt lat="51.7836365942" lon="-2.1167309582"><ele>241.75</ele><time>2021-11-03T11:01:02Z</time></trkpt><trkpt lat="51.7836553697" lon="-2.1167102549"><ele>241.75</ele><time>2021-11-03T11:01:46Z</time></trkpt><trkpt lat="51.7836636677" lon="-2.1166925691"><ele>241.75</ele><time>2021-11-03T11:02:05Z</time></trkpt><trkpt lat="51.7836567108" lon="-2.1166517492"><ele>241.75</ele><time>2021-11-03T11:02:30Z</time></trkpt><trkpt lat="51.7836796772" lon="-2.1166649926"><ele>241.75</ele><time>2021-11-03T11:02:50Z</time></trkpt><trkpt lat="51.7836770788" lon="-2.1166835167"><ele>241.75</ele><time>2021-11-03T11:03:07Z</time></trkpt><trkpt lat="51.7836884782" lon="-2.1167563554"><ele>241.75</ele><time>2021-11-03T11:03:30Z</time></trkpt><trkpt lat="51.7836832814" lon="-2.1167735383"><ele>241.75</ele><time>2021-11-03T11:04:03Z</time></trkpt><trkpt lat="51.7836768273" lon="-2.1167578641"><ele>241.75</ele><time>2021-11-03T11:04:24Z</time></trkpt><trkpt lat="51.7836821079" lon="-2.1167326346"><ele>241.75</ele><time>2021-11-03T11:04:45Z</time></trkpt><trkpt lat="51.7836628295" lon="-2.1167260129"><ele>241.75</ele><time>2021-11-03T11:05:06Z</time></trkpt><trkpt lat="51.7836552858" lon="-2.1167186368"><ele>241.75</ele><time>2021-11-03T11:05:35Z</time></trkpt><trkpt lat="51.7836386058" lon="-2.1166747157"><ele>241.75</ele><time>2021-11-03T11:06:15Z</time></trkpt><trkpt lat="51.7836399470" lon="-2.1167328022"><ele>241.75</ele><time>2021-11-03T11:06:43Z</time></trkpt><trkpt lat="51.7836016417" lon="-2.1168702655"><ele>241.75</ele><time>2021-11-03T11:06:58Z</time></trkpt><trkpt lat="51.7836007196" lon="-2.1169811580"><ele>241.75</ele><time>2021-11-03T11:07:11Z</time></trkpt><trkpt lat="51.7835974507" lon="-2.1170280129"><ele>241.75</ele><time>2021-11-03T11:07:28Z</time></trkpt><trkpt lat="51.7835828662" lon="-2.1170284320"><ele>241.75</ele><time>2021-11-03T11:07:43Z</time></trkpt><trkpt lat="51.7835427169" lon="-2.1170617081"><ele>241.75</ele><time>2021-11-03T11:07:57Z</time></trkpt><trkpt lat="51.7835800163" lon="-2.1171031147"><ele>241.75</ele><time>2021-11-03T11:08:21Z</time></trkpt><trkpt lat="51.7835966963" lon="-2.1171975788"><ele>242.43</ele><time>2021-11-03T11:08:33Z</time></trkpt><trkpt lat="51.7835270427" lon="-2.1173068788"><ele>242.02</ele><time>2021-11-03T11:08:51Z</time></trkpt><trkpt lat="51.7835203372" lon="-2.1173505485"><ele>242.10</ele><time>2021-11-03T11:08:55Z</time></trkpt><trkpt lat="51.7835018970" lon="-2.1174592618"><ele>242.15</ele><time>2021-11-03T11:09:04Z</time></trkpt><trkpt lat="51.7834845465" lon="-2.1175927855"><ele>242.29</ele><time>2021-11-03T11:09:16Z</time></trkpt><trkpt lat="51.7834842112" lon="-2.1176054422"><ele>242.34</ele><time>2021-11-03T11:09:17Z</time></trkpt><trkpt lat="51.7834620830" lon="-2.1177664585"><ele>242.61</ele><time>2021-11-03T11:09:29Z</time></trkpt><trkpt lat="51.7834516894" lon="-2.1179003175"><ele>242.87</ele><time>2021-11-03T11:09:40Z</time></trkpt><trkpt lat="51.7834489234" lon="-2.1180342603"><ele>243.48</ele><time>2021-11-03T11:09:54Z</time></trkpt><trkpt lat="51.7834525276" lon="-2.1182009764"><ele>243.75</ele><time>2021-11-03T11:10:10Z</time></trkpt><trkpt lat="51.7834552098" lon="-2.1182707138"><ele>243.91</ele><time>2021-11-03T11:10:15Z</time></trkpt><trkpt lat="51.7834533658" lon="-2.1183159761"><ele>243.96</ele><time>2021-11-03T11:10:20Z</time></trkpt><trkpt lat="51.7834631726" lon="-2.1183570474"><ele>244.03</ele><time>2021-11-03T11:10:23Z</time></trkpt><trkpt lat="51.7834811937" lon="-2.1184277069"><ele>243.99</ele><time>2021-11-03T11:10:28Z</time></trkpt><trkpt lat="51.7834526952" lon="-2.1184873860"><ele>245.16</ele><time>2021-11-03T11:10:40Z</time></trkpt><trkpt lat="51.7834621668" lon="-2.1186081693"><ele>244.69</ele><time>2021-11-03T11:10:49Z</time></trkpt><trkpt lat="51.7834566347" lon="-2.1187782381"><ele>245.42</ele><time>2021-11-03T11:11:02Z</time></trkpt><trkpt lat="51.7834041640" lon="-2.1188619733"><ele>246.13</ele><time>2021-11-03T11:11:20Z</time></trkpt><trkpt lat="51.7833517771" lon="-2.1188744623"><ele>246.77</ele><time>2021-11-03T11:11:33Z</time></trkpt><trkpt lat="51.7832806148" lon="-2.1188869514"><ele>247.98</ele><time>2021-11-03T11:11:46Z</time></trkpt><trkpt lat="51.7832393758" lon="-2.1188830119"><ele>249.35</ele><time>2021-11-03T11:11:58Z</time></trkpt><trkpt lat="51.7832167447" lon="-2.1188725345"><ele>249.14</ele><time>2021-11-03T11:12:12Z</time></trkpt><trkpt lat="51.7831216939" lon="-2.1188693494"><ele>251.37</ele><time>2021-11-03T11:12:25Z</time></trkpt><trkpt lat="51.7830796167" lon="-2.1188694332"><ele>253.02</ele><time>2021-11-03T11:12:40Z</time></trkpt><trkpt lat="51.7830258049" lon="-2.1188759711"><ele>253.57</ele><time>2021-11-03T11:13:01Z</time></trkpt><trkpt lat="51.7829622701" lon="-2.1188903041"><ele>254.51</ele><time>2021-11-03T11:13:30Z</time></trkpt><trkpt lat="51.7828557361" lon="-2.1189298667"><ele>256.52</ele><time>2021-11-03T11:13:45Z</time></trkpt><trkpt lat="51.7827652115" lon="-2.1189326327"><ele>258.50</ele><time>2021-11-03T11:13:58Z</time></trkpt><trkpt lat="51.7826982401" lon="-2.1189612150"><ele>260.13</ele><time>2021-11-03T11:14:11Z</time></trkpt><trkpt lat="51.7826074641" lon="-2.1189894620"><ele>261.71</ele><time>2021-11-03T11:14:25Z</time></trkpt><trkpt lat="51.7825461924" lon="-2.1189941559"><ele>262.45</ele><time>2021-11-03T11:14:40Z</time></trkpt><trkpt lat="51.7824951466" lon="-2.1190094110"><ele>262.78</ele><time>2021-11-03T11:14:49Z</time></trkpt><trkpt lat="51.7824846692" lon="-2.1189861093"><ele>264.04</ele><time>2021-11-03T11:15:08Z</time></trkpt><trkpt lat="51.7824115790" lon="-2.1190037113"><ele>263.85</ele><time>2021-11-03T11:15:21Z</time></trkpt><trkpt lat="51.7823207192" lon="-2.1190248337"><ele>265.31</ele><time>2021-11-03T11:15:34Z</time></trkpt><trkpt lat="51.7822611239" lon="-2.1190487221"><ele>266.60</ele><time>2021-11-03T11:15:47Z</time></trkpt><trkpt lat="51.7822573520" lon="-2.1190664079"><ele>266.78</ele><time>2021-11-03T11:16:15Z</time></trkpt><trkpt lat="51.7822645605" lon="-2.1190768853"><ele>266.61</ele><time>2021-11-03T11:16:17Z</time></trkpt><trkpt lat="51.7822644766" lon="-2.1191946510"><ele>266.71</ele><time>2021-11-03T11:16:28Z</time></trkpt><trkpt lat="51.7822746187" lon="-2.1193364728"><ele>267.59</ele><time>2021-11-03T11:16:41Z</time></trkpt><trkpt lat="51.7822744511" lon="-2.1194702480"><ele>267.89</ele><time>2021-11-03T11:16:53Z</time></trkpt><trkpt lat="51.7822934780" lon="-2.1196055319"><ele>268.18</ele><time>2021-11-03T11:17:03Z</time></trkpt><trkpt lat="51.7822783068" lon="-2.1196947154"><ele>268.42</ele><time>2021-11-03T11:17:09Z</time></trkpt><trkpt lat="51.7822284345" lon="-2.1197662968"><ele>269.47</ele><time>2021-11-03T11:17:21Z</time></trkpt><trkpt lat="51.7821843456" lon="-2.1197908558"><ele>268.92</ele><time>2021-11-03T11:17:42Z</time></trkpt><trkpt lat="51.7821544223" lon="-2.1198209468"><ele>269.19</ele><time>2021-11-03T11:17:46Z</time></trkpt><trkpt lat="51.7821238283" lon="-2.1198455058"><ele>269.47</ele><time>2021-11-03T11:17:50Z</time></trkpt><trkpt lat="51.7820929829" lon="-2.1198634431"><ele>269.63</ele><time>2021-11-03T11:17:54Z</time></trkpt><trkpt lat="51.7820193060" lon="-2.1199381258"><ele>270.89</ele><time>2021-11-03T11:18:06Z</time></trkpt><trkpt lat="51.7819613870" lon="-2.1199846454"><ele>271.50</ele><time>2021-11-03T11:18:18Z</time></trkpt><trkpt lat="51.7819048930" lon="-2.1200276446"><ele>271.66</ele><time>2021-11-03T11:18:30Z</time></trkpt><trkpt lat="51.7818573676" lon="-2.1200747509"><ele>272.39</ele><time>2021-11-03T11:18:44Z</time></trkpt><trkpt lat="51.7817852832" lon="-2.1201371960"><ele>273.00</ele><time>2021-11-03T11:18:57Z</time></trkpt><trkpt lat="51.7817171384" lon="-2.1201941092"><ele>273.68</ele><time>2021-11-03T11:19:10Z</time></trkpt><trkpt lat="51.7816779949" lon="-2.1202330850"><ele>273.90</ele><time>2021-11-03T11:19:17Z</time></trkpt><trkpt lat="51.7816102691" lon="-2.1202925965"><ele>273.91</ele><time>2021-11-03T11:19:29Z</time></trkpt><trkpt lat="51.7815397773" lon="-2.1203895751"><ele>274.50</ele><time>2021-11-03T11:19:41Z</time></trkpt><trkpt lat="51.7815131228" lon="-2.1204880625"><ele>274.91</ele><time>2021-11-03T11:19:55Z</time></trkpt><trkpt lat="51.7815294676" lon="-2.1205602307"><ele>275.23</ele><time>2021-11-03T11:20:10Z</time></trkpt><trkpt lat="51.7815508414" lon="-2.1206189878"><ele>275.58</ele><time>2021-11-03T11:20:16Z</time></trkpt><trkpt lat="51.7815808486" lon="-2.1207046509"><ele>276.21</ele><time>2021-11-03T11:20:24Z</time></trkpt><trkpt lat="51.7816314753" lon="-2.1207935829"><ele>277.32</ele><time>2021-11-03T11:20:40Z</time></trkpt><trkpt lat="51.7816450540" lon="-2.1208566986"><ele>277.18</ele><time>2021-11-03T11:20:54Z</time></trkpt><trkpt lat="51.7816339061" lon="-2.1208685171"><ele>277.59</ele><time>2021-11-03T11:21:11Z</time></trkpt><trkpt lat="51.7816059943" lon="-2.1209017932"><ele>277.47</ele><time>2021-11-03T11:21:24Z</time></trkpt><trkpt lat="51.7815594748" lon="-2.1208313014"><ele>277.28</ele><time>2021-11-03T11:21:44Z</time></trkpt><trkpt lat="51.7814911623" lon="-2.1206775773"><ele>277.28</ele><time>2021-11-03T11:22:04Z</time></trkpt><trkpt lat="51.7814371828" lon="-2.1205216739"><ele>277.28</ele><time>2021-11-03T11:22:21Z</time></trkpt><trkpt lat="51.7813801859" lon="-2.1203943528"><ele>277.28</ele><time>2021-11-03T11:22:37Z</time></trkpt><trkpt lat="51.7813479155" lon="-2.1203457378"><ele>274.43</ele><time>2021-11-03T11:22:44Z</time></trkpt><trkpt lat="51.7812931817" lon="-2.1201744117"><ele>273.41</ele><time>2021-11-03T11:23:03Z</time></trkpt><trkpt lat="51.7812527809" lon="-2.1200115513"><ele>272.92</ele><time>2021-11-03T11:23:21Z</time></trkpt><trkpt lat="51.7811769247" lon="-2.1198464278"><ele>271.94</ele><time>2021-11-03T11:23:36Z</time></trkpt><trkpt lat="51.7811681237" lon="-2.1198289096"><ele>271.82</ele><time>2021-11-03T11:23:38Z</time></trkpt><trkpt lat="51.7811290640" lon="-2.1197180171"><ele>271.30</ele><time>2021-11-03T11:23:52Z</time></trkpt><trkpt lat="51.7810667865" lon="-2.1195837390"><ele>269.84</ele><time>2021-11-03T11:24:08Z</time></trkpt><trkpt lat="51.7810182553" lon="-2.1194163524"><ele>268.41</ele><time>2021-11-03T11:24:25Z</time></trkpt><trkpt lat="51.7809478473" lon="-2.1192310285"><ele>267.16</ele><time>2021-11-03T11:24:45Z</time></trkpt><trkpt lat="51.7808905151" lon="-2.1190601215"><ele>266.13</ele><time>2021-11-03T11:25:03Z</time></trkpt><trkpt lat="51.7808194365" lon="-2.1188846882"><ele>264.97</ele><time>2021-11-03T11:25:20Z</time></trkpt><trkpt lat="51.7807888426" lon="-2.1188199800"><ele>264.34</ele><time>2021-11-03T11:25:27Z</time></trkpt><trkpt lat="51.7807545606" lon="-2.1186680160"><ele>262.83</ele><time>2021-11-03T11:25:40Z</time></trkpt><trkpt lat="51.7807659600" lon="-2.1186650824"><ele>264.40</ele><time>2021-11-03T11:26:04Z</time></trkpt><trkpt lat="51.7807124835" lon="-2.1186464746"><ele>263.41</ele><time>2021-11-03T11:26:23Z</time></trkpt><trkpt lat="51.7807056941" lon="-2.1186360810"><ele>263.35</ele><time>2021-11-03T11:26:24Z</time></trkpt><trkpt lat="51.7806241382" lon="-2.1184910741"><ele>261.80</ele><time>2021-11-03T11:26:39Z</time></trkpt><trkpt lat="51.7806087155" lon="-2.1184419561"><ele>261.12</ele><time>2021-11-03T11:26:57Z</time></trkpt><trkpt lat="51.7805452645" lon="-2.1183159761"><ele>260.01</ele><time>2021-11-03T11:27:13Z</time></trkpt><trkpt lat="51.7804808076" lon="-2.1182069276"><ele>258.85</ele><time>2021-11-03T11:27:28Z</time></trkpt><trkpt lat="51.7804117408" lon="-2.1180688776"><ele>257.60</ele><time>2021-11-03T11:27:43Z</time></trkpt><trkpt lat="51.7803587671" lon="-2.1179461665"><ele>256.74</ele><time>2021-11-03T11:27:56Z</time></trkpt><trkpt lat="51.7803122476" lon="-2.1178270597"><ele>255.67</ele><time>2021-11-03T11:28:11Z</time></trkpt><trkpt lat="51.7802670691" lon="-2.1177040134"><ele>254.66</ele><time>2021-11-03T11:28:25Z</time></trkpt><trkpt lat="51.7802139279" lon="-2.1175867505"><ele>253.24</ele><time>2021-11-03T11:28:42Z</time></trkpt><trkpt lat="51.7801575176" lon="-2.1174347028"><ele>252.06</ele><time>2021-11-03T11:28:59Z</time></trkpt><trkpt lat="51.7801026162" lon="-2.1172611974"><ele>251.03</ele><time>2021-11-03T11:29:16Z</time></trkpt><trkpt lat="51.7800379917" lon="-2.1171487123"><ele>249.72</ele><time>2021-11-03T11:29:31Z</time></trkpt><trkpt lat="51.7799713556" lon="-2.1169605386"><ele>248.14</ele><time>2021-11-03T11:29:53Z</time></trkpt><trkpt lat="51.7799231596" lon="-2.1168264281"><ele>247.12</ele><time>2021-11-03T11:30:05Z</time></trkpt><trkpt lat="51.7798623070" lon="-2.1166903060"><ele>246.47</ele><time>2021-11-03T11:30:20Z</time></trkpt><trkpt lat="51.7798375804" lon="-2.1165464725"><ele>245.16</ele><time>2021-11-03T11:30:34Z</time></trkpt><trkpt lat="51.7798089981" lon="-2.1164237615"><ele>243.27</ele><time>2021-11-03T11:30:49Z</time></trkpt><trkpt lat="51.7797614727" lon="-2.1162438858"><ele>241.17</ele><time>2021-11-03T11:31:10Z</time></trkpt><trkpt lat="51.7797177192" lon="-2.1160599031"><ele>239.36</ele><time>2021-11-03T11:31:28Z</time></trkpt><trkpt lat="51.7797043920" lon="-2.1158978809"><ele>238.50</ele><time>2021-11-03T11:31:40Z</time></trkpt><trkpt lat="51.7797141150" lon="-2.1157690510"><ele>237.17</ele><time>2021-11-03T11:31:54Z</time></trkpt><trkpt lat="51.7797442060" lon="-2.1155812964"><ele>235.26</ele><time>2021-11-03T11:32:13Z</time></trkpt><trkpt lat="51.7797675915" lon="-2.1154066175"><ele>234.02</ele><time>2021-11-03T11:32:29Z</time></trkpt><trkpt lat="51.7798029631" lon="-2.1152067930"><ele>232.56</ele><time>2021-11-03T11:32:48Z</time></trkpt><trkpt lat="51.7798310425" lon="-2.1150185354"><ele>231.45</ele><time>2021-11-03T11:33:07Z</time></trkpt><trkpt lat="51.7798447050" lon="-2.1148376539"><ele>230.40</ele><time>2021-11-03T11:33:23Z</time></trkpt><trkpt lat="51.7798529193" lon="-2.1146695130"><ele>228.96</ele><time>2021-11-03T11:33:37Z</time></trkpt><trkpt lat="51.7798563559" lon="-2.1146395057"><ele>228.81</ele><time>2021-11-03T11:33:40Z</time></trkpt><trkpt lat="51.7798424419" lon="-2.1144647431"><ele>227.79</ele><time>2021-11-03T11:33:54Z</time></trkpt><trkpt lat="51.7798322160" lon="-2.1142894775"><ele>227.05</ele><time>2021-11-03T11:34:08Z</time></trkpt><trkpt lat="51.7798131052" lon="-2.1141472366"><ele>226.91</ele><time>2021-11-03T11:34:22Z</time></trkpt><trkpt lat="51.7797804158" lon="-2.1140082646"><ele>227.11</ele><time>2021-11-03T11:34:39Z</time></trkpt><trkpt lat="51.7797674239" lon="-2.1139981225"><ele>227.32</ele><time>2021-11-03T11:35:03Z</time></trkpt><trkpt lat="51.7797507439" lon="-2.1139800176"><ele>227.32</ele><time>2021-11-03T11:35:30Z</time></trkpt><trkpt lat="51.7796984408" lon="-2.1139716357"><ele>227.32</ele><time>2021-11-03T11:35:45Z</time></trkpt><trkpt lat="51.7796779890" lon="-2.1139599849"><ele>227.32</ele><time>2021-11-03T11:35:55Z</time></trkpt><trkpt lat="51.7796064075" lon="-2.1139215119"><ele>227.53</ele><time>2021-11-03T11:36:05Z</time></trkpt><trkpt lat="51.7795054056" lon="-2.1138908342"><ele>229.24</ele><time>2021-11-03T11:36:19Z</time></trkpt><trkpt lat="51.7794398591" lon="-2.1138548758"><ele>230.53</ele><time>2021-11-03T11:36:36Z</time></trkpt><trkpt lat="51.7793829460" lon="-2.1138182469"><ele>230.72</ele><time>2021-11-03T11:36:53Z</time></trkpt><trkpt lat="51.7793656792" lon="-2.1137941070"><ele>231.77</ele><time>2021-11-03T11:36:58Z</time></trkpt><trkpt lat="51.7793521006" lon="-2.1137888264"><ele>231.55</ele><time>2021-11-03T11:37:00Z</time></trkpt><trkpt lat="51.7793412041" lon="-2.1137713920"><ele>231.41</ele><time>2021-11-03T11:37:02Z</time></trkpt><trkpt lat="51.7792338319" lon="-2.1137247887"><ele>232.99</ele><time>2021-11-03T11:37:17Z</time></trkpt><trkpt lat="51.7791639268" lon="-2.1136777662"><ele>233.95</ele><time>2021-11-03T11:37:37Z</time></trkpt><trkpt lat="51.7790588178" lon="-2.1136136446"><ele>235.24</ele><time>2021-11-03T11:37:54Z</time></trkpt><trkpt lat="51.7789857276" lon="-2.1135688014"><ele>236.68</ele><time>2021-11-03T11:38:08Z</time></trkpt><trkpt lat="51.7789284792" lon="-2.1135138161"><ele>237.11</ele><time>2021-11-03T11:38:19Z</time></trkpt><trkpt lat="51.7788787745" lon="-2.1134294942"><ele>238.87</ele><time>2021-11-03T11:38:34Z</time></trkpt><trkpt lat="51.7788438220" lon="-2.1133766882"><ele>238.51</ele><time>2021-11-03T11:38:54Z</time></trkpt><trkpt lat="51.7788300756" lon="-2.1133627743"><ele>238.52</ele><time>2021-11-03T11:38:56Z</time></trkpt><trkpt lat="51.7788013257" lon="-2.1133009158"><ele>239.59</ele><time>2021-11-03T11:39:02Z</time></trkpt><trkpt lat="51.7787810415" lon="-2.1132536419"><ele>241.42</ele><time>2021-11-03T11:39:17Z</time></trkpt><trkpt lat="51.7787611764" lon="-2.1131580044"><ele>241.58</ele><time>2021-11-03T11:39:38Z</time></trkpt><trkpt lat="51.7787223682" lon="-2.1130176075"><ele>243.21</ele><time>2021-11-03T11:39:54Z</time></trkpt><trkpt lat="51.7787070293" lon="-2.1128841676"><ele>244.16</ele><time>2021-11-03T11:40:10Z</time></trkpt><trkpt lat="51.7786996532" lon="-2.1128129214"><ele>245.27</ele><time>2021-11-03T11:40:25Z</time></trkpt><trkpt lat="51.7787050176" lon="-2.1128315292"><ele>245.59</ele><time>2021-11-03T11:41:24Z</time></trkpt><trkpt lat="51.7786975577" lon="-2.1127833333"><ele>245.45</ele><time>2021-11-03T11:42:36Z</time></trkpt><trkpt lat="51.7786859907" lon="-2.1126424335"><ele>245.45</ele><time>2021-11-03T11:42:49Z</time></trkpt><trkpt lat="51.7786786985" lon="-2.1125283558"><ele>245.45</ele><time>2021-11-03T11:43:02Z</time></trkpt><trkpt lat="51.7786691431" lon="-2.1124983486"><ele>245.45</ele><time>2021-11-03T11:43:21Z</time></trkpt><trkpt lat="51.7786763515" lon="-2.1124693472"><ele>245.45</ele><time>2021-11-03T11:43:43Z</time></trkpt><trkpt lat="51.7786830571" lon="-2.1124153677"><ele>245.45</ele><time>2021-11-03T11:43:47Z</time></trkpt><trkpt lat="51.7786706518" lon="-2.1123434510"><ele>247.36</ele><time>2021-11-03T11:43:53Z</time></trkpt><trkpt lat="51.7786649521" lon="-2.1122843586"><ele>247.80</ele><time>2021-11-03T11:43:58Z</time></trkpt><trkpt lat="51.7786615994" lon="-2.1122152917"><ele>248.14</ele><time>2021-11-03T11:44:03Z</time></trkpt><trkpt lat="51.7786649521" lon="-2.1120075881"><ele>249.03</ele><time>2021-11-03T11:44:15Z</time></trkpt><trkpt lat="51.7786882538" lon="-2.1117892396"><ele>250.06</ele><time>2021-11-03T11:44:27Z</time></trkpt><trkpt lat="51.7787592486" lon="-2.1115809493"><ele>251.19</ele><time>2021-11-03T11:44:42Z</time></trkpt><trkpt lat="51.7788232025" lon="-2.1114662848"><ele>251.98</ele><time>2021-11-03T11:44:55Z</time></trkpt><trkpt lat="51.7788559757" lon="-2.1113430709"><ele>252.18</ele><time>2021-11-03T11:45:13Z</time></trkpt><trkpt lat="51.7789013218" lon="-2.1112615988"><ele>253.07</ele><time>2021-11-03T11:45:34Z</time></trkpt><trkpt lat="51.7789703887" lon="-2.1111172624"><ele>254.81</ele><time>2021-11-03T11:45:48Z</time></trkpt><trkpt lat="51.7790041678" lon="-2.1110442560"><ele>258.00</ele><time>2021-11-03T11:46:01Z</time></trkpt><trkpt lat="51.7790013179" lon="-2.1110122371"><ele>258.11</ele><time>2021-11-03T11:46:22Z</time></trkpt><trkpt lat="51.7790165730" lon="-2.1109806374"><ele>257.85</ele><time>2021-11-03T11:46:39Z</time></trkpt><trkpt lat="51.7790449876" lon="-2.1109179407"><ele>257.14</ele><time>2021-11-03T11:46:43Z</time></trkpt><trkpt lat="51.7790984642" lon="-2.1107047889"><ele>260.08</ele><time>2021-11-03T11:46:57Z</time></trkpt><trkpt lat="51.7791066784" lon="-2.1105849277"><ele>263.16</ele><time>2021-11-03T11:47:10Z</time></trkpt><trkpt lat="51.7790918425" lon="-2.1105643082"><ele>263.06</ele><time>2021-11-03T11:47:36Z</time></trkpt><trkpt lat="51.7790858913" lon="-2.1105829161"><ele>263.37</ele><time>2021-11-03T11:47:59Z</time></trkpt><trkpt lat="51.7790853884" lon="-2.1105780546"><ele>263.41</ele><time>2021-11-03T11:48:20Z</time></trkpt><trkpt lat="51.7790770903" lon="-2.1105845086"><ele>263.41</ele><time>2021-11-03T11:48:56Z</time></trkpt><trkpt lat="51.7790719774" lon="-2.1106034517"><ele>263.41</ele><time>2021-11-03T11:49:42Z</time></trkpt><trkpt lat="51.7790397070" lon="-2.1104628872"><ele>263.41</ele><time>2021-11-03T11:49:57Z</time></trkpt><trkpt lat="51.7789789382" lon="-2.1103357337"><ele>263.41</ele><time>2021-11-03T11:50:13Z</time></trkpt><trkpt lat="51.7789112125" lon="-2.1102077421"><ele>263.41</ele><time>2021-11-03T11:50:31Z</time></trkpt><trkpt lat="51.7788454983" lon="-2.1100454684"><ele>263.41</ele><time>2021-11-03T11:50:50Z</time></trkpt><trkpt lat="51.7788067739" lon="-2.1099542733"><ele>263.41</ele><time>2021-11-03T11:51:02Z</time></trkpt><trkpt lat="51.7787584942" lon="-2.1098455600"><ele>268.96</ele><time>2021-11-03T11:51:14Z</time></trkpt><trkpt lat="51.7787535489" lon="-2.1098359209"><ele>268.87</ele><time>2021-11-03T11:51:15Z</time></trkpt><trkpt lat="51.7786836438" lon="-2.1096572187"><ele>269.65</ele><time>2021-11-03T11:51:34Z</time></trkpt><trkpt lat="51.7785948794" lon="-2.1095225215"><ele>270.99</ele><time>2021-11-03T11:51:51Z</time></trkpt><trkpt lat="51.7785194423" lon="-2.1093392931"><ele>272.31</ele><time>2021-11-03T11:52:10Z</time></trkpt><trkpt lat="51.7784756050" lon="-2.1092388779"><ele>273.44</ele><time>2021-11-03T11:52:24Z</time></trkpt><trkpt lat="51.7784450948" lon="-2.1091657877"><ele>274.56</ele><time>2021-11-03T11:52:39Z</time></trkpt><trkpt lat="51.7784462683" lon="-2.1091624349"><ele>275.95</ele><time>2021-11-03T11:52:42Z</time></trkpt><trkpt lat="51.7784450110" lon="-2.1091414802"><ele>274.19</ele><time>2021-11-03T11:53:15Z</time></trkpt><trkpt lat="51.7783960607" lon="-2.1089756861"><ele>276.14</ele><time>2021-11-03T11:53:35Z</time></trkpt><trkpt lat="51.7783211265" lon="-2.1087971516"><ele>278.21</ele><time>2021-11-03T11:53:55Z</time></trkpt><trkpt lat="51.7782823183" lon="-2.1086444333"><ele>280.25</ele><time>2021-11-03T11:54:14Z</time></trkpt><trkpt lat="51.7782363854" lon="-2.1084760409"><ele>281.93</ele><time>2021-11-03T11:54:35Z</time></trkpt><trkpt lat="51.7781885248" lon="-2.1083218977"><ele>282.57</ele><time>2021-11-03T11:54:50Z</time></trkpt><trkpt lat="51.7781854235" lon="-2.1082757134"><ele>283.61</ele><time>2021-11-03T11:55:14Z</time></trkpt><trkpt lat="51.7781503033" lon="-2.1081597917"><ele>283.64</ele><time>2021-11-03T11:55:29Z</time></trkpt><trkpt lat="51.7781280912" lon="-2.1080198977"><ele>284.92</ele><time>2021-11-03T11:55:41Z</time></trkpt><trkpt lat="51.7780664843" lon="-2.1078147925"><ele>285.84</ele><time>2021-11-03T11:56:02Z</time></trkpt><trkpt lat="51.7780138459" lon="-2.1076683607"><ele>286.57</ele><time>2021-11-03T11:56:16Z</time></trkpt><trkpt lat="51.7779447790" lon="-2.1074799355"><ele>287.38</ele><time>2021-11-03T11:56:33Z</time></trkpt><trkpt lat="51.7778320424" lon="-2.1073972899"><ele>288.35</ele><time>2021-11-03T11:56:48Z</time></trkpt><trkpt lat="51.7777810805" lon="-2.1073661931"><ele>288.15</ele><time>2021-11-03T11:56:57Z</time></trkpt><trkpt lat="51.7776970100" lon="-2.1072954498"><ele>288.44</ele><time>2021-11-03T11:57:09Z</time></trkpt><trkpt lat="51.7775855307" lon="-2.1072411351"><ele>288.25</ele><time>2021-11-03T11:57:24Z</time></trkpt><trkpt lat="51.7774654180" lon="-2.1071266383"><ele>287.81</ele><time>2021-11-03T11:57:42Z</time></trkpt><trkpt lat="51.7773794197" lon="-2.1070523746"><ele>287.91</ele><time>2021-11-03T11:57:56Z</time></trkpt><trkpt lat="51.7773612309" lon="-2.1070309170"><ele>288.06</ele><time>2021-11-03T11:57:59Z</time></trkpt><trkpt lat="51.7772484105" lon="-2.1069656219"><ele>288.19</ele><time>2021-11-03T11:58:14Z</time></trkpt><trkpt lat="51.7771490850" lon="-2.1068673860"><ele>288.17</ele><time>2021-11-03T11:58:29Z</time></trkpt><trkpt lat="51.7770487536" lon="-2.1067640372"><ele>287.87</ele><time>2021-11-03T11:58:43Z</time></trkpt><trkpt lat="51.7769589834" lon="-2.1066727582"><ele>287.94</ele><time>2021-11-03T11:58:57Z</time></trkpt><trkpt lat="51.7768702190" lon="-2.1065793838"><ele>287.58</ele><time>2021-11-03T11:59:10Z</time></trkpt><trkpt lat="51.7768082768" lon="-2.1065366361"><ele>287.01</ele><time>2021-11-03T11:59:21Z</time></trkpt><trkpt lat="51.7767775152" lon="-2.1064734366"><ele>287.68</ele><time>2021-11-03T11:59:28Z</time></trkpt><trkpt lat="51.7767423112" lon="-2.1064019389"><ele>288.00</ele><time>2021-11-03T11:59:36Z</time></trkpt><trkpt lat="51.7766986415" lon="-2.1063147672"><ele>288.09</ele><time>2021-11-03T11:59:50Z</time></trkpt><trkpt lat="51.7766629346" lon="-2.1062078979"><ele>287.44</ele><time>2021-11-03T12:00:05Z</time></trkpt><trkpt lat="51.7766009085" lon="-2.1061423514"><ele>288.11</ele><time>2021-11-03T12:00:22Z</time></trkpt><trkpt lat="51.7765564844" lon="-2.1060413495"><ele>288.74</ele><time>2021-11-03T12:00:36Z</time></trkpt><trkpt lat="51.7765510362" lon="-2.1060487255"><ele>288.26</ele><time>2021-11-03T12:00:57Z</time></trkpt><trkpt lat="51.7765428219" lon="-2.1060322970"><ele>288.26</ele><time>2021-11-03T12:01:34Z</time></trkpt><trkpt lat="51.7764973920" lon="-2.1059562732"><ele>288.26</ele><time>2021-11-03T12:01:56Z</time></trkpt><trkpt lat="51.7764564883" lon="-2.1058732923"><ele>288.26</ele><time>2021-11-03T12:02:07Z</time></trkpt><trkpt lat="51.7764048558" lon="-2.1057926584"><ele>288.26</ele><time>2021-11-03T12:02:22Z</time></trkpt><trkpt lat="51.7763698194" lon="-2.1056957636"><ele>288.26</ele><time>2021-11-03T12:02:36Z</time></trkpt><trkpt lat="51.7763212882" lon="-2.1055847872"><ele>288.26</ele><time>2021-11-03T12:02:50Z</time></trkpt><trkpt lat="51.7762723379" lon="-2.1054657642"><ele>288.26</ele><time>2021-11-03T12:03:06Z</time></trkpt><trkpt lat="51.7762184422" lon="-2.1053171530"><ele>287.94</ele><time>2021-11-03T12:03:21Z</time></trkpt><trkpt lat="51.7761675641" lon="-2.1051925980"><ele>288.29</ele><time>2021-11-03T12:03:38Z</time></trkpt><trkpt lat="51.7761264928" lon="-2.1050462499"><ele>288.13</ele><time>2021-11-03T12:03:51Z</time></trkpt><trkpt lat="51.7760874331" lon="-2.1049160790"><ele>288.14</ele><time>2021-11-03T12:04:05Z</time></trkpt><trkpt lat="51.7760588508" lon="-2.1047947928"><ele>287.51</ele><time>2021-11-03T12:04:19Z</time></trkpt><trkpt lat="51.7759955674" lon="-2.1046320163"><ele>287.51</ele><time>2021-11-03T12:04:37Z</time></trkpt><trkpt lat="51.7759317812" lon="-2.1044704970"><ele>287.51</ele><time>2021-11-03T12:04:54Z</time></trkpt><trkpt lat="51.7758783046" lon="-2.1043077204"><ele>287.52</ele><time>2021-11-03T12:05:09Z</time></trkpt><trkpt lat="51.7758286837" lon="-2.1041616239"><ele>287.52</ele><time>2021-11-03T12:05:23Z</time></trkpt><trkpt lat="51.7757892888" lon="-2.1040577721"><ele>287.52</ele><time>2021-11-03T12:05:35Z</time></trkpt><trkpt lat="51.7757429369" lon="-2.1039264277"><ele>287.52</ele><time>2021-11-03T12:05:49Z</time></trkpt><trkpt lat="51.7756893765" lon="-2.1038146969"><ele>287.06</ele><time>2021-11-03T12:06:03Z</time></trkpt><trkpt lat="51.7756265961" lon="-2.1036329772"><ele>287.17</ele><time>2021-11-03T12:06:22Z</time></trkpt><trkpt lat="51.7755857762" lon="-2.1034945920"><ele>286.78</ele><time>2021-11-03T12:06:35Z</time></trkpt><trkpt lat="51.7755992711" lon="-2.1032802667"><ele>287.08</ele><time>2021-11-03T12:06:57Z</time></trkpt><trkpt lat="51.7756384984" lon="-2.1030520275"><ele>287.16</ele><time>2021-11-03T12:07:17Z</time></trkpt><trkpt lat="51.7756947409" lon="-2.1027912665"><ele>286.86</ele><time>2021-11-03T12:07:38Z</time></trkpt><trkpt lat="51.7757459544" lon="-2.1025484428"><ele>287.01</ele><time>2021-11-03T12:07:58Z</time></trkpt><trkpt lat="51.7757881153" lon="-2.1023450978"><ele>287.01</ele><time>2021-11-03T12:08:16Z</time></trkpt><trkpt lat="51.7758249119" lon="-2.1021433454"><ele>287.01</ele><time>2021-11-03T12:08:34Z</time></trkpt><trkpt lat="51.7758658994" lon="-2.1019491367"><ele>287.01</ele><time>2021-11-03T12:08:50Z</time></trkpt><trkpt lat="51.7758984212" lon="-2.1017679200"><ele>287.01</ele><time>2021-11-03T12:09:04Z</time></trkpt><trkpt lat="51.7759253271" lon="-2.1015814226"><ele>287.01</ele><time>2021-11-03T12:09:19Z</time></trkpt><trkpt lat="51.7759769596" lon="-2.1014278661"><ele>287.01</ele><time>2021-11-03T12:09:33Z</time></trkpt><trkpt lat="51.7759969085" lon="-2.1012187377"><ele>287.01</ele><time>2021-11-03T12:09:48Z</time></trkpt><trkpt lat="51.7760511395" lon="-2.1010420471"><ele>286.59</ele><time>2021-11-03T12:10:04Z</time></trkpt><trkpt lat="51.7760860920" lon="-2.1008786000"><ele>286.44</ele><time>2021-11-03T12:10:19Z</time></trkpt><trkpt lat="51.7761274148" lon="-2.1007049270"><ele>286.58</ele><time>2021-11-03T12:10:36Z</time></trkpt><trkpt lat="51.7761743534" lon="-2.1005194355"><ele>286.52</ele><time>2021-11-03T12:10:52Z</time></trkpt><trkpt lat="51.7761846632" lon="-2.1004064474"><ele>285.94</ele><time>2021-11-03T12:11:07Z</time></trkpt><trkpt lat="51.7761856690" lon="-2.1003981493"><ele>286.18</ele><time>2021-11-03T12:11:08Z</time></trkpt><trkpt lat="51.7762088869" lon="-2.1003041044"><ele>286.68</ele><time>2021-11-03T12:11:15Z</time></trkpt><trkpt lat="51.7762248963" lon="-2.1001922060"><ele>286.36</ele><time>2021-11-03T12:11:23Z</time></trkpt><trkpt lat="51.7762614414" lon="-2.1001161821"><ele>285.44</ele><time>2021-11-03T12:11:36Z</time></trkpt><trkpt lat="51.7762758583" lon="-2.1001251508"><ele>286.58</ele><time>2021-11-03T12:11:43Z</time></trkpt><trkpt lat="51.7762835696" lon="-2.1001321077"><ele>284.77</ele><time>2021-11-03T12:11:54Z</time></trkpt><trkpt lat="51.7762782890" lon="-2.1001168527"><ele>288.05</ele><time>2021-11-03T12:12:01Z</time></trkpt><trkpt lat="51.7762937117" lon="-2.0999302715"><ele>286.27</ele><time>2021-11-03T12:12:17Z</time></trkpt><trkpt lat="51.7763331067" lon="-2.0997458696"><ele>285.85</ele><time>2021-11-03T12:12:34Z</time></trkpt><trkpt lat="51.7763566598" lon="-2.0995499007"><ele>285.88</ele><time>2021-11-03T12:12:51Z</time></trkpt><trkpt lat="51.7763976473" lon="-2.0993826818"><ele>285.64</ele><time>2021-11-03T12:13:06Z</time></trkpt><trkpt lat="51.7764371261" lon="-2.0991404448"><ele>285.64</ele><time>2021-11-03T12:13:26Z</time></trkpt><trkpt lat="51.7764828075" lon="-2.0989971980"><ele>285.45</ele><time>2021-11-03T12:13:42Z</time></trkpt><trkpt lat="51.7764926143" lon="-2.0989568811"><ele>285.33</ele><time>2021-11-03T12:13:45Z</time></trkpt><trkpt lat="51.7765155807" lon="-2.0987807773"><ele>285.12</ele><time>2021-11-03T12:14:07Z</time></trkpt><trkpt lat="51.7765470129" lon="-2.0986147318"><ele>285.47</ele><time>2021-11-03T12:14:17Z</time></trkpt><trkpt lat="51.7765885033" lon="-2.0984392986"><ele>285.02</ele><time>2021-11-03T12:14:30Z</time></trkpt><trkpt lat="51.7765911017" lon="-2.0984267257"><ele>284.95</ele><time>2021-11-03T12:14:31Z</time></trkpt><trkpt lat="51.7766483501" lon="-2.0981973968"><ele>284.56</ele><time>2021-11-03T12:14:46Z</time></trkpt><trkpt lat="51.7766600847" lon="-2.0980766974"><ele>284.89</ele><time>2021-11-03T12:14:57Z</time></trkpt><trkpt lat="51.7766611744" lon="-2.0980699919"><ele>284.75</ele><time>2021-11-03T12:15:17Z</time></trkpt><trkpt lat="51.7766294908" lon="-2.0979979914"><ele>284.53</ele><time>2021-11-03T12:15:26Z</time></trkpt><trkpt lat="51.7766249646" lon="-2.0978895295"><ele>284.78</ele><time>2021-11-03T12:15:38Z</time></trkpt><trkpt lat="51.7766072787" lon="-2.0978368074"><ele>284.50</ele><time>2021-11-03T12:15:44Z</time></trkpt><trkpt lat="51.7765927780" lon="-2.0977786370"><ele>284.49</ele><time>2021-11-03T12:15:48Z</time></trkpt><trkpt lat="51.7765523773" lon="-2.0976208057"><ele>284.48</ele><time>2021-11-03T12:16:00Z</time></trkpt><trkpt lat="51.7765337694" lon="-2.0975622162"><ele>284.42</ele><time>2021-11-03T12:16:05Z</time></trkpt><trkpt lat="51.7765169218" lon="-2.0975037944"><ele>284.65</ele><time>2021-11-03T12:16:10Z</time></trkpt><trkpt lat="51.7764633615" lon="-2.0973126870"><ele>284.27</ele><time>2021-11-03T12:16:24Z</time></trkpt><trkpt lat="51.7764052749" lon="-2.0971365832"><ele>284.11</ele><time>2021-11-03T12:16:39Z</time></trkpt><trkpt lat="51.7763866670" lon="-2.0970713720"><ele>284.09</ele><time>2021-11-03T12:16:45Z</time></trkpt><trkpt lat="51.7763547320" lon="-2.0969269518"><ele>284.05</ele><time>2021-11-03T12:16:57Z</time></trkpt><trkpt lat="51.7763154209" lon="-2.0968051627"><ele>283.98</ele><time>2021-11-03T12:17:07Z</time></trkpt><trkpt lat="51.7763094697" lon="-2.0967892371"><ele>284.10</ele><time>2021-11-03T12:17:09Z</time></trkpt><trkpt lat="51.7762615252" lon="-2.0966378599"><ele>284.27</ele><time>2021-11-03T12:17:22Z</time></trkpt><trkpt lat="51.7762106471" lon="-2.0964596607"><ele>284.25</ele><time>2021-11-03T12:17:36Z</time></trkpt><trkpt lat="51.7761792988" lon="-2.0963749196"><ele>284.11</ele><time>2021-11-03T12:17:44Z</time></trkpt><trkpt lat="51.7761233915" lon="-2.0962117240"><ele>284.16</ele><time>2021-11-03T12:17:58Z</time></trkpt><trkpt lat="51.7760529835" lon="-2.0960827265"><ele>284.25</ele><time>2021-11-03T12:18:11Z</time></trkpt><trkpt lat="51.7760179471" lon="-2.0960349496"><ele>284.51</ele><time>2021-11-03T12:18:33Z</time></trkpt><trkpt lat="51.7759456113" lon="-2.0959073771"><ele>284.51</ele><time>2021-11-03T12:18:50Z</time></trkpt><trkpt lat="51.7758629657" lon="-2.0958397351"><ele>284.51</ele><time>2021-11-03T12:19:02Z</time></trkpt><trkpt lat="51.7757990956" lon="-2.0956700016"><ele>284.52</ele><time>2021-11-03T12:19:16Z</time></trkpt><trkpt lat="51.7757353093" lon="-2.0955400821"><ele>284.52</ele><time>2021-11-03T12:19:27Z</time></trkpt><trkpt lat="51.7756518256" lon="-2.0954016130"><ele>284.11</ele><time>2021-11-03T12:19:42Z</time></trkpt><trkpt lat="51.7756435275" lon="-2.0953954943"><ele>284.06</ele><time>2021-11-03T12:19:43Z</time></trkpt><trkpt lat="51.7755421903" lon="-2.0952417701"><ele>283.26</ele><time>2021-11-03T12:19:58Z</time></trkpt><trkpt lat="51.7754746322" lon="-2.0951466355"><ele>283.28</ele><time>2021-11-03T12:20:09Z</time></trkpt><trkpt lat="51.7754384223" lon="-2.0949521754"><ele>283.95</ele><time>2021-11-03T12:20:24Z</time></trkpt><trkpt lat="51.7755469680" lon="-2.0947726350"><ele>283.74</ele><time>2021-11-03T12:20:43Z</time></trkpt><trkpt lat="51.7756268475" lon="-2.0947008021"><ele>283.61</ele><time>2021-11-03T12:20:52Z</time></trkpt><trkpt lat="51.7757275980" lon="-2.0945856348"><ele>283.05</ele><time>2021-11-03T12:21:06Z</time></trkpt><trkpt lat="51.7757486366" lon="-2.0945245307"><ele>283.94</ele><time>2021-11-03T12:21:20Z</time></trkpt><trkpt lat="51.7757560965" lon="-2.0945676975"><ele>283.79</ele><time>2021-11-03T12:21:44Z</time></trkpt><trkpt lat="51.7757591978" lon="-2.0945710503"><ele>283.72</ele><time>2021-11-03T12:22:21Z</time></trkpt><trkpt lat="51.7758536618" lon="-2.0944698807"><ele>283.26</ele><time>2021-11-03T12:22:51Z</time></trkpt><trkpt lat="51.7759955674" lon="-2.0943336748"><ele>283.34</ele><time>2021-11-03T12:23:06Z</time></trkpt><trkpt lat="51.7761886027" lon="-2.0941860694"><ele>282.99</ele><time>2021-11-03T12:23:23Z</time></trkpt><trkpt lat="51.7762040254" lon="-2.0941357780"><ele>283.24</ele><time>2021-11-03T12:23:37Z</time></trkpt><trkpt lat="51.7762200348" lon="-2.0941130631"><ele>283.24</ele><time>2021-11-03T12:24:02Z</time></trkpt><trkpt lat="51.7762768641" lon="-2.0940692257"><ele>282.96</ele><time>2021-11-03T12:24:07Z</time></trkpt><trkpt lat="51.7763362918" lon="-2.0940168388"><ele>282.43</ele><time>2021-11-03T12:24:12Z</time></trkpt><trkpt lat="51.7765165865" lon="-2.0938695688"><ele>282.03</ele><time>2021-11-03T12:24:26Z</time></trkpt><trkpt lat="51.7767359409" lon="-2.0936793834"><ele>281.57</ele><time>2021-11-03T12:24:41Z</time></trkpt><trkpt lat="51.7769045848" lon="-2.0935143437"><ele>280.76</ele><time>2021-11-03T12:24:57Z</time></trkpt><trkpt lat="51.7769801058" lon="-2.0934424270"><ele>280.57</ele><time>2021-11-03T12:25:03Z</time></trkpt><trkpt lat="51.7771475762" lon="-2.0933699235"><ele>279.68</ele><time>2021-11-03T12:25:17Z</time></trkpt><trkpt lat="51.7772059981" lon="-2.0933168661"><ele>279.31</ele><time>2021-11-03T12:25:23Z</time></trkpt><trkpt lat="51.7772976961" lon="-2.0932415128"><ele>278.42</ele><time>2021-11-03T12:25:32Z</time></trkpt><trkpt lat="51.7774252687" lon="-2.0931687579"><ele>277.99</ele><time>2021-11-03T12:25:42Z</time></trkpt><trkpt lat="51.7775674257" lon="-2.0930364914"><ele>277.51</ele><time>2021-11-03T12:25:58Z</time></trkpt><trkpt lat="51.7776151188" lon="-2.0930203144"><ele>277.09</ele><time>2021-11-03T12:26:03Z</time></trkpt><trkpt lat="51.7776333075" lon="-2.0930135250"><ele>276.95</ele><time>2021-11-03T12:26:05Z</time></trkpt><trkpt lat="51.7778218165" lon="-2.0929351542"><ele>276.19</ele><time>2021-11-03T12:26:20Z</time></trkpt><trkpt lat="51.7779453658" lon="-2.0928805042"><ele>275.63</ele><time>2021-11-03T12:26:34Z</time></trkpt><trkpt lat="51.7780308612" lon="-2.0928401873"><ele>274.75</ele><time>2021-11-03T12:26:49Z</time></trkpt><trkpt lat="51.7780379858" lon="-2.0928155445"><ele>274.49</ele><time>2021-11-03T12:27:03Z</time></trkpt></trkseg></trk></gpx>